sensor_id;sensor_type;location;lat;lon;timestamp;P1;durP1;ratioP1;P2;durP2;ratioP2
7166;SDS011;3625;51.762;14.320;2023-03-21T00:01:49;29.20;;;20.20;;
7166;SDS011;3625;51.762;14.320;2023-03-21T00:04:19;28.37;;;21.57;;
7166;SDS011;3625;51.762;14.320;2023-03-21T00:06:48;28.60;;;21.53;;
7166;SDS011;3625;51.762;14.320;2023-03-21T00:09:18;25.00;;;20.60;;
7166;SDS011;3625;51.762;14.320;2023-03-21T00:11:48;27.23;;;20.50;;
7166;SDS011;3625;51.762;14.320;2023-03-21T00:14:17;25.40;;;18.83;;
7166;SDS011;3625;51.762;14.320;2023-03-21T00:16:46;23.00;;;18.50;;
7166;SDS011;3625;51.762;14.320;2023-03-21T00:19:20;29.63;;;21.27;;
7166;SDS011;3625;51.762;14.320;2023-03-21T00:21:50;27.07;;;20.40;;
7166;SDS011;3625;51.762;14.320;2023-03-21T00:24:41;24.73;;;19.83;;
7166;SDS011;3625;51.762;14.320;2023-03-21T00:27:12;30.10;;;21.47;;
7166;SDS011;3625;51.762;14.320;2023-03-21T00:30:01;27.50;;;19.53;;
7166;SDS011;3625;51.762;14.320;2023-03-21T00:32:30;27.40;;;20.93;;
7166;SDS011;3625;51.762;14.320;2023-03-21T00:35:09;26.80;;;21.10;;
7166;SDS011;3625;51.762;14.320;2023-03-21T00:37:58;25.37;;;18.57;;
7166;SDS011;3625;51.762;14.320;2023-03-21T00:40:27;25.47;;;19.73;;
7166;SDS011;3625;51.762;14.320;2023-03-21T00:43:09;26.90;;;20.70;;
7166;SDS011;3625;51.762;14.320;2023-03-21T00:45:39;25.13;;;20.87;;
7166;SDS011;3625;51.762;14.320;2023-03-21T00:48:08;25.03;;;20.17;;
7166;SDS011;3625;51.762;14.320;2023-03-21T00:50:39;22.10;;;17.97;;
7166;SDS011;3625;51.762;14.320;2023-03-21T00:53:10;23.03;;;18.70;;
7166;SDS011;3625;51.762;14.320;2023-03-21T00:55:40;23.03;;;19.53;;
7166;SDS011;3625;51.762;14.320;2023-03-21T00:58:11;26.13;;;20.40;;
7166;SDS011;3625;51.762;14.320;2023-03-21T01:00:40;22.27;;;18.23;;
7166;SDS011;3625;51.762;14.320;2023-03-21T01:03:10;23.83;;;19.27;;
7166;SDS011;3625;51.762;14.320;2023-03-21T01:05:50;20.67;;;18.43;;
7166;SDS011;3625;51.762;14.320;2023-03-21T01:08:33;23.83;;;19.73;;
7166;SDS011;3625;51.762;14.320;2023-03-21T01:11:18;22.40;;;18.00;;
7166;SDS011;3625;51.762;14.320;2023-03-21T01:13:50;19.60;;;17.50;;
7166;SDS011;3625;51.762;14.320;2023-03-21T01:16:29;18.70;;;16.60;;
7166;SDS011;3625;51.762;14.320;2023-03-21T01:18:59;19.30;;;17.30;;
7166;SDS011;3625;51.762;14.320;2023-03-21T01:21:32;19.30;;;16.10;;
7166;SDS011;3625;51.762;14.320;2023-03-21T01:24:01;22.10;;;17.50;;
7166;SDS011;3625;51.762;14.320;2023-03-21T01:26:31;20.77;;;18.13;;
7166;SDS011;3625;51.762;14.320;2023-03-21T01:29:01;18.77;;;16.77;;
7166;SDS011;3625;51.762;14.320;2023-03-21T01:31:30;21.37;;;18.27;;
7166;SDS011;3625;51.762;14.320;2023-03-21T01:33:59;20.40;;;18.20;;
7166;SDS011;3625;51.762;14.320;2023-03-21T01:36:28;22.60;;;18.47;;
7166;SDS011;3625;51.762;14.320;2023-03-21T01:39:03;18.83;;;16.83;;
7166;SDS011;3625;51.762;14.320;2023-03-21T01:41:33;19.67;;;17.00;;
7166;SDS011;3625;51.762;14.320;2023-03-21T01:44:29;17.83;;;16.03;;
7166;SDS011;3625;51.762;14.320;2023-03-21T01:46:58;19.07;;;17.00;;
7166;SDS011;3625;51.762;14.320;2023-03-21T01:49:45;20.70;;;17.80;;
7166;SDS011;3625;51.762;14.320;2023-03-21T01:52:25;20.10;;;17.35;;
7166;SDS011;3625;51.762;14.320;2023-03-21T01:55:13;19.70;;;17.57;;
7166;SDS011;3625;51.762;14.320;2023-03-21T01:57:50;20.30;;;17.27;;
7166;SDS011;3625;51.762;14.320;2023-03-21T02:00:52;20.55;;;17.90;;
7166;SDS011;3625;51.762;14.320;2023-03-21T02:03:35;21.07;;;18.93;;
7166;SDS011;3625;51.762;14.320;2023-03-21T02:06:45;19.83;;;17.73;;
7166;SDS011;3625;51.762;14.320;2023-03-21T02:09:29;18.57;;;16.77;;
7166;SDS011;3625;51.762;14.320;2023-03-21T02:12:03;20.67;;;18.20;;
7166;SDS011;3625;51.762;14.320;2023-03-21T02:14:33;20.90;;;18.70;;
7166;SDS011;3625;51.762;14.320;2023-03-21T02:17:30;20.57;;;18.43;;
7166;SDS011;3625;51.762;14.320;2023-03-21T02:27:05;19.75;;;17.65;;
7166;SDS011;3625;51.762;14.320;2023-03-21T02:33:07;21.63;;;19.27;;
7166;SDS011;3625;51.762;14.320;2023-03-21T02:35:55;21.70;;;19.43;;
7166;SDS011;3625;51.762;14.320;2023-03-21T02:39:03;22.50;;;19.27;;
7166;SDS011;3625;51.762;14.320;2023-03-21T02:41:43;20.30;;;17.97;;
7166;SDS011;3625;51.762;14.320;2023-03-21T02:44:28;21.50;;;19.20;;
7166;SDS011;3625;51.762;14.320;2023-03-21T02:47:07;22.93;;;19.33;;
7166;SDS011;3625;51.762;14.320;2023-03-21T02:49:42;21.10;;;18.87;;
7166;SDS011;3625;51.762;14.320;2023-03-21T02:52:17;20.83;;;18.57;;
7166;SDS011;3625;51.762;14.320;2023-03-21T02:55:08;21.23;;;19.03;;
7166;SDS011;3625;51.762;14.320;2023-03-21T02:57:58;22.03;;;18.47;;
7166;SDS011;3625;51.762;14.320;2023-03-21T03:00:42;22.55;;;20.10;;
7166;SDS011;3625;51.762;14.320;2023-03-21T03:03:22;21.90;;;19.27;;
7166;SDS011;3625;51.762;14.320;2023-03-21T03:06:03;22.93;;;19.70;;
7166;SDS011;3625;51.762;14.320;2023-03-21T03:08:44;20.80;;;18.57;;
7166;SDS011;3625;51.762;14.320;2023-03-21T03:11:32;22.00;;;18.90;;
7166;SDS011;3625;51.762;14.320;2023-03-21T03:14:09;21.33;;;19.23;;
7166;SDS011;3625;51.762;14.320;2023-03-21T03:17:28;21.87;;;19.47;;
7166;SDS011;3625;51.762;14.320;2023-03-21T03:20:17;20.47;;;18.30;;
7166;SDS011;3625;51.762;14.320;2023-03-21T03:23:06;21.53;;;18.83;;
7166;SDS011;3625;51.762;14.320;2023-03-21T03:25:49;22.23;;;18.83;;
7166;SDS011;3625;51.762;14.320;2023-03-21T03:28:25;22.27;;;19.50;;
7166;SDS011;3625;51.762;14.320;2023-03-21T03:30:59;22.43;;;19.97;;
7166;SDS011;3625;51.762;14.320;2023-03-21T03:33:40;20.57;;;17.73;;
7166;SDS011;3625;51.762;14.320;2023-03-21T03:36:14;24.03;;;19.63;;
7166;SDS011;3625;51.762;14.320;2023-03-21T03:39:02;22.07;;;18.47;;
7166;SDS011;3625;51.762;14.320;2023-03-21T03:41:37;22.43;;;20.03;;
7166;SDS011;3625;51.762;14.320;2023-03-21T03:44:37;24.27;;;20.60;;
7166;SDS011;3625;51.762;14.320;2023-03-21T03:47:09;23.05;;;20.45;;
7166;SDS011;3625;51.762;14.320;2023-03-21T03:49:59;24.95;;;22.40;;
7166;SDS011;3625;51.762;14.320;2023-03-21T03:52:36;23.53;;;18.97;;
7166;SDS011;3625;51.762;14.320;2023-03-21T03:55:22;26.05;;;21.70;;
7166;SDS011;3625;51.762;14.320;2023-03-21T03:58:00;26.67;;;21.27;;
7166;SDS011;3625;51.762;14.320;2023-03-21T04:00:38;19.97;;;17.90;;
7166;SDS011;3625;51.762;14.320;2023-03-21T04:03:08;23.13;;;19.40;;
7166;SDS011;3625;51.762;14.320;2023-03-21T04:05:37;22.50;;;20.07;;
7166;SDS011;3625;51.762;14.320;2023-03-21T04:08:08;23.67;;;20.30;;
7166;SDS011;3625;51.762;14.320;2023-03-21T04:10:41;22.60;;;19.10;;
7166;SDS011;3625;51.762;14.320;2023-03-21T04:13:10;23.53;;;19.63;;
7166;SDS011;3625;51.762;14.320;2023-03-21T04:16:05;22.20;;;18.70;;
7166;SDS011;3625;51.762;14.320;2023-03-21T04:18:35;23.33;;;18.43;;
7166;SDS011;3625;51.762;14.320;2023-03-21T04:21:06;23.70;;;18.80;;
7166;SDS011;3625;51.762;14.320;2023-03-21T04:23:36;24.47;;;20.17;;
7166;SDS011;3625;51.762;14.320;2023-03-21T04:26:07;23.67;;;18.83;;
7166;SDS011;3625;51.762;14.320;2023-03-21T04:28:42;23.77;;;19.03;;
7166;SDS011;3625;51.762;14.320;2023-03-21T04:31:24;24.07;;;20.33;;
7166;SDS011;3625;51.762;14.320;2023-03-21T04:34:04;21.63;;;18.37;;
7166;SDS011;3625;51.762;14.320;2023-03-21T04:36:38;24.83;;;20.53;;
7166;SDS011;3625;51.762;14.320;2023-03-21T04:39:10;20.87;;;18.47;;
7166;SDS011;3625;51.762;14.320;2023-03-21T04:41:45;21.53;;;17.70;;
7166;SDS011;3625;51.762;14.320;2023-03-21T04:44:15;20.53;;;16.93;;
7166;SDS011;3625;51.762;14.320;2023-03-21T04:46:46;21.50;;;18.80;;
7166;SDS011;3625;51.762;14.320;2023-03-21T04:49:15;20.23;;;17.90;;
7166;SDS011;3625;51.762;14.320;2023-03-21T04:51:45;22.97;;;18.77;;
7166;SDS011;3625;51.762;14.320;2023-03-21T04:54:18;22.63;;;18.40;;
7166;SDS011;3625;51.762;14.320;2023-03-21T04:56:48;22.67;;;19.03;;
7166;SDS011;3625;51.762;14.320;2023-03-21T04:59:18;20.77;;;17.77;;
7166;SDS011;3625;51.762;14.320;2023-03-21T05:01:48;19.33;;;17.13;;
7166;SDS011;3625;51.762;14.320;2023-03-21T05:04:17;23.93;;;19.47;;
7166;SDS011;3625;51.762;14.320;2023-03-21T05:06:46;23.80;;;19.43;;
7166;SDS011;3625;51.762;14.320;2023-03-21T05:09:15;21.17;;;18.13;;
7166;SDS011;3625;51.762;14.320;2023-03-21T05:11:44;21.20;;;18.80;;
7166;SDS011;3625;51.762;14.320;2023-03-21T05:14:14;24.20;;;20.47;;
7166;SDS011;3625;51.762;14.320;2023-03-21T05:16:47;20.50;;;16.27;;
7166;SDS011;3625;51.762;14.320;2023-03-21T05:19:22;20.57;;;16.60;;
7166;SDS011;3625;51.762;14.320;2023-03-21T05:22:03;25.40;;;18.60;;
7166;SDS011;3625;51.762;14.320;2023-03-21T05:24:33;23.50;;;18.73;;
7166;SDS011;3625;51.762;14.320;2023-03-21T05:27:06;20.30;;;17.30;;
7166;SDS011;3625;51.762;14.320;2023-03-21T05:29:42;19.40;;;15.30;;
7166;SDS011;3625;51.762;14.320;2023-03-21T05:32:12;22.93;;;17.77;;
7166;SDS011;3625;51.762;14.320;2023-03-21T05:34:41;20.43;;;16.67;;
7166;SDS011;3625;51.762;14.320;2023-03-21T05:37:10;16.40;;;14.50;;
7166;SDS011;3625;51.762;14.320;2023-03-21T05:39:45;19.33;;;15.50;;
7166;SDS011;3625;51.762;14.320;2023-03-21T05:42:21;22.03;;;17.80;;
7166;SDS011;3625;51.762;14.320;2023-03-21T05:44:50;20.53;;;17.30;;
7166;SDS011;3625;51.762;14.320;2023-03-21T05:47:26;22.67;;;16.43;;
7166;SDS011;3625;51.762;14.320;2023-03-21T05:49:58;22.10;;;17.90;;
7166;SDS011;3625;51.762;14.320;2023-03-21T05:52:29;22.30;;;18.60;;
7166;SDS011;3625;51.762;14.320;2023-03-21T05:54:59;21.37;;;18.13;;
7166;SDS011;3625;51.762;14.320;2023-03-21T05:57:29;21.43;;;18.03;;
7166;SDS011;3625;51.762;14.320;2023-03-21T06:00:06;24.73;;;19.40;;
7166;SDS011;3625;51.762;14.320;2023-03-21T06:02:43;22.20;;;18.33;;
7166;SDS011;3625;51.762;14.320;2023-03-21T06:05:34;24.27;;;18.50;;
7166;SDS011;3625;51.762;14.320;2023-03-21T06:08:19;22.77;;;16.83;;
7166;SDS011;3625;51.762;14.320;2023-03-21T06:10:52;20.85;;;17.25;;
7166;SDS011;3625;51.762;14.320;2023-03-21T06:13:32;22.45;;;18.40;;
7166;SDS011;3625;51.762;14.320;2023-03-21T06:16:01;21.20;;;17.15;;
7166;SDS011;3625;51.762;14.320;2023-03-21T06:18:36;20.37;;;15.60;;
7166;SDS011;3625;51.762;14.320;2023-03-21T06:21:24;18.63;;;15.83;;
7166;SDS011;3625;51.762;14.320;2023-03-21T06:23:53;25.63;;;17.27;;
7166;SDS011;3625;51.762;14.320;2023-03-21T06:26:25;22.90;;;17.73;;
7166;SDS011;3625;51.762;14.320;2023-03-21T06:28:55;23.93;;;18.53;;
7166;SDS011;3625;51.762;14.320;2023-03-21T06:31:24;21.93;;;18.13;;
7166;SDS011;3625;51.762;14.320;2023-03-21T06:34:01;22.80;;;18.93;;
7166;SDS011;3625;51.762;14.320;2023-03-21T06:36:31;23.13;;;20.23;;
7166;SDS011;3625;51.762;14.320;2023-03-21T06:39:20;24.13;;;18.53;;
7166;SDS011;3625;51.762;14.320;2023-03-21T06:41:49;25.00;;;18.07;;
7166;SDS011;3625;51.762;14.320;2023-03-21T06:44:18;23.13;;;19.03;;
7166;SDS011;3625;51.762;14.320;2023-03-21T06:46:56;23.43;;;18.80;;
7166;SDS011;3625;51.762;14.320;2023-03-21T06:49:26;23.60;;;19.30;;
7166;SDS011;3625;51.762;14.320;2023-03-21T06:52:00;28.13;;;19.27;;
7166;SDS011;3625;51.762;14.320;2023-03-21T06:54:29;24.57;;;18.93;;
7166;SDS011;3625;51.762;14.320;2023-03-21T06:57:00;23.23;;;18.37;;
7166;SDS011;3625;51.762;14.320;2023-03-21T06:59:32;20.87;;;17.13;;
7166;SDS011;3625;51.762;14.320;2023-03-21T07:02:08;18.03;;;15.80;;
7166;SDS011;3625;51.762;14.320;2023-03-21T07:04:46;24.27;;;19.73;;
7166;SDS011;3625;51.762;14.320;2023-03-21T07:07:22;23.07;;;18.67;;
7166;SDS011;3625;51.762;14.320;2023-03-21T07:09:55;24.60;;;20.27;;
7166;SDS011;3625;51.762;14.320;2023-03-21T07:12:26;25.00;;;17.83;;
7166;SDS011;3625;51.762;14.320;2023-03-21T07:15:34;18.47;;;15.67;;
7166;SDS011;3625;51.762;14.320;2023-03-21T07:18:07;23.63;;;18.30;;
7166;SDS011;3625;51.762;14.320;2023-03-21T07:20:40;22.10;;;17.60;;
7166;SDS011;3625;51.762;14.320;2023-03-21T07:23:16;21.80;;;17.53;;
7166;SDS011;3625;51.762;14.320;2023-03-21T07:25:48;22.10;;;18.23;;
7166;SDS011;3625;51.762;14.320;2023-03-21T07:28:19;24.00;;;18.80;;
7166;SDS011;3625;51.762;14.320;2023-03-21T07:30:52;19.67;;;16.00;;
7166;SDS011;3625;51.762;14.320;2023-03-21T07:33:22;25.10;;;19.37;;
7166;SDS011;3625;51.762;14.320;2023-03-21T07:35:58;22.33;;;18.57;;
7166;SDS011;3625;51.762;14.320;2023-03-21T07:38:29;22.33;;;18.60;;
7166;SDS011;3625;51.762;14.320;2023-03-21T07:40:58;22.93;;;17.63;;
7166;SDS011;3625;51.762;14.320;2023-03-21T07:43:31;23.07;;;18.20;;
7166;SDS011;3625;51.762;14.320;2023-03-21T07:46:08;25.07;;;19.10;;
7166;SDS011;3625;51.762;14.320;2023-03-21T07:48:37;25.43;;;19.80;;
7166;SDS011;3625;51.762;14.320;2023-03-21T07:51:07;26.13;;;19.90;;
7166;SDS011;3625;51.762;14.320;2023-03-21T07:53:36;25.17;;;20.30;;
7166;SDS011;3625;51.762;14.320;2023-03-21T07:56:07;28.40;;;21.37;;
7166;SDS011;3625;51.762;14.320;2023-03-21T07:58:37;28.53;;;22.50;;
7166;SDS011;3625;51.762;14.320;2023-03-21T08:01:06;26.47;;;21.07;;
7166;SDS011;3625;51.762;14.320;2023-03-21T08:03:35;26.70;;;20.17;;
7166;SDS011;3625;51.762;14.320;2023-03-21T08:06:04;24.93;;;19.97;;
7166;SDS011;3625;51.762;14.320;2023-03-21T08:08:36;25.60;;;20.20;;
7166;SDS011;3625;51.762;14.320;2023-03-21T08:11:20;28.03;;;21.23;;
7166;SDS011;3625;51.762;14.320;2023-03-21T08:13:50;24.57;;;20.80;;
7166;SDS011;3625;51.762;14.320;2023-03-21T08:16:19;22.80;;;19.80;;
7166;SDS011;3625;51.762;14.320;2023-03-21T08:18:48;25.00;;;20.57;;
7166;SDS011;3625;51.762;14.320;2023-03-21T08:21:18;19.00;;;16.97;;
7166;SDS011;3625;51.762;14.320;2023-03-21T08:23:47;25.50;;;20.70;;
7166;SDS011;3625;51.762;14.320;2023-03-21T08:26:15;23.83;;;20.47;;
7166;SDS011;3625;51.762;14.320;2023-03-21T08:28:44;24.53;;;20.97;;
7166;SDS011;3625;51.762;14.320;2023-03-21T08:31:13;25.05;;;20.55;;
7166;SDS011;3625;51.762;14.320;2023-03-21T08:33:43;25.17;;;20.80;;
7166;SDS011;3625;51.762;14.320;2023-03-21T08:36:12;27.43;;;21.77;;
7166;SDS011;3625;51.762;14.320;2023-03-21T08:38:42;29.00;;;22.20;;
7166;SDS011;3625;51.762;14.320;2023-03-21T08:41:13;31.67;;;21.87;;
7166;SDS011;3625;51.762;14.320;2023-03-21T08:43:42;27.37;;;20.90;;
7166;SDS011;3625;51.762;14.320;2023-03-21T08:46:11;29.57;;;22.90;;
7166;SDS011;3625;51.762;14.320;2023-03-21T08:48:41;26.53;;;20.73;;
7166;SDS011;3625;51.762;14.320;2023-03-21T08:51:09;25.87;;;21.57;;
7166;SDS011;3625;51.762;14.320;2023-03-21T08:53:38;31.00;;;23.23;;
7166;SDS011;3625;51.762;14.320;2023-03-21T08:56:09;34.07;;;23.17;;
7166;SDS011;3625;51.762;14.320;2023-03-21T08:58:38;28.77;;;22.97;;
7166;SDS011;3625;51.762;14.320;2023-03-21T09:01:07;31.77;;;23.42;;
7166;SDS011;3625;51.762;14.320;2023-03-21T09:03:36;31.88;;;23.13;;
7166;SDS011;3625;51.762;14.320;2023-03-21T09:06:05;28.10;;;22.63;;
7166;SDS011;3625;51.762;14.320;2023-03-21T09:08:36;26.33;;;23.17;;
7166;SDS011;3625;51.762;14.320;2023-03-21T09:11:05;25.87;;;21.57;;
7166;SDS011;3625;51.762;14.320;2023-03-21T09:13:35;27.55;;;23.13;;
7166;SDS011;3625;51.762;14.320;2023-03-21T09:16:04;26.73;;;22.13;;
7166;SDS011;3625;51.762;14.320;2023-03-21T09:18:34;24.30;;;21.67;;
7166;SDS011;3625;51.762;14.320;2023-03-21T09:21:12;26.60;;;21.13;;
7166;SDS011;3625;51.762;14.320;2023-03-21T09:23:44;26.20;;;22.63;;
7166;SDS011;3625;51.762;14.320;2023-03-21T09:26:13;24.65;;;20.90;;
7166;SDS011;3625;51.762;14.320;2023-03-21T09:28:44;24.08;;;19.90;;
7166;SDS011;3625;51.762;14.320;2023-03-21T09:31:13;23.90;;;19.25;;
7166;SDS011;3625;51.762;14.320;2023-03-21T09:33:47;23.15;;;18.90;;
7166;SDS011;3625;51.762;14.320;2023-03-21T09:36:16;21.38;;;18.75;;
7166;SDS011;3625;51.762;14.320;2023-03-21T09:38:46;19.55;;;17.30;;
7166;SDS011;3625;51.762;14.320;2023-03-21T09:41:19;19.83;;;17.27;;
7166;SDS011;3625;51.762;14.320;2023-03-21T09:44:12;17.85;;;15.60;;
7166;SDS011;3625;51.762;14.320;2023-03-21T09:46:54;21.15;;;17.38;;
7166;SDS011;3625;51.762;14.320;2023-03-21T09:49:33;15.73;;;14.13;;
7166;SDS011;3625;51.762;14.320;2023-03-21T09:52:08;20.52;;;16.05;;
7166;SDS011;3625;51.762;14.320;2023-03-21T09:54:43;20.85;;;16.73;;
7166;SDS011;3625;51.762;14.320;2023-03-21T09:57:14;19.63;;;15.65;;
7166;SDS011;3625;51.762;14.320;2023-03-21T09:59:53;18.17;;;15.00;;
7166;SDS011;3625;51.762;14.320;2023-03-21T10:02:37;18.48;;;15.80;;
7166;SDS011;3625;51.762;14.320;2023-03-21T10:05:15;16.45;;;14.10;;
7166;SDS011;3625;51.762;14.320;2023-03-21T10:07:49;14.77;;;12.93;;
7166;SDS011;3625;51.762;14.320;2023-03-21T10:10:21;15.45;;;13.18;;
7166;SDS011;3625;51.762;14.320;2023-03-21T10:12:55;22.60;;;14.63;;
7166;SDS011;3625;51.762;14.320;2023-03-21T10:15:25;14.25;;;12.77;;
7166;SDS011;3625;51.762;14.320;2023-03-21T10:17:56;17.60;;;13.95;;
7166;SDS011;3625;51.762;14.320;2023-03-21T10:20:29;15.48;;;12.25;;
7166;SDS011;3625;51.762;14.320;2023-03-21T10:23:00;13.35;;;12.02;;
7166;SDS011;3625;51.762;14.320;2023-03-21T10:25:32;16.48;;;13.43;;
7166;SDS011;3625;51.762;14.320;2023-03-21T10:28:05;15.77;;;13.07;;
7166;SDS011;3625;51.762;14.320;2023-03-21T10:30:39;16.05;;;12.98;;
7166;SDS011;3625;51.762;14.320;2023-03-21T10:33:13;16.85;;;14.98;;
7166;SDS011;3625;51.762;14.320;2023-03-21T10:35:48;13.75;;;11.50;;
7166;SDS011;3625;51.762;14.320;2023-03-21T10:38:20;14.13;;;12.40;;
7166;SDS011;3625;51.762;14.320;2023-03-21T10:40:52;11.65;;;10.48;;
7166;SDS011;3625;51.762;14.320;2023-03-21T10:43:32;12.85;;;10.63;;
7166;SDS011;3625;51.762;14.320;2023-03-21T10:46:10;16.45;;;12.70;;
7166;SDS011;3625;51.762;14.320;2023-03-21T10:48:40;12.70;;;11.25;;
7166;SDS011;3625;51.762;14.320;2023-03-21T10:51:14;14.00;;;12.15;;
7166;SDS011;3625;51.762;14.320;2023-03-21T10:53:48;14.77;;;12.10;;
7166;SDS011;3625;51.762;14.320;2023-03-21T10:56:21;13.25;;;11.75;;
7166;SDS011;3625;51.762;14.320;2023-03-21T10:58:53;13.25;;;11.15;;
7166;SDS011;3625;51.762;14.320;2023-03-21T11:01:27;11.75;;;10.55;;
7166;SDS011;3625;51.762;14.320;2023-03-21T11:04:05;13.85;;;12.43;;
7166;SDS011;3625;51.762;14.320;2023-03-21T11:06:37;13.05;;;11.68;;
7166;SDS011;3625;51.762;14.320;2023-03-21T11:09:08;12.85;;;11.60;;
7166;SDS011;3625;51.762;14.320;2023-03-21T11:11:48;11.55;;;10.35;;
7166;SDS011;3625;51.762;14.320;2023-03-21T11:14:26;12.07;;;10.50;;
7166;SDS011;3625;51.762;14.320;2023-03-21T11:17:02;10.85;;;9.70;;
7166;SDS011;3625;51.762;14.320;2023-03-21T11:19:46;11.23;;;10.07;;
7166;SDS011;3625;51.762;14.320;2023-03-21T11:22:18;10.32;;;9.23;;
7166;SDS011;3625;51.762;14.320;2023-03-21T11:24:49;10.25;;;9.25;;
7166;SDS011;3625;51.762;14.320;2023-03-21T11:27:23;10.05;;;8.80;;
7166;SDS011;3625;51.762;14.320;2023-03-21T11:29:55;9.20;;;8.30;;
7166;SDS011;3625;51.762;14.320;2023-03-21T11:32:29;10.82;;;9.73;;
7166;SDS011;3625;51.762;14.320;2023-03-21T11:35:03;10.40;;;9.32;;
7166;SDS011;3625;51.762;14.320;2023-03-21T11:37:37;10.15;;;9.20;;
7166;SDS011;3625;51.762;14.320;2023-03-21T11:40:17;11.05;;;9.95;;
7166;SDS011;3625;51.762;14.320;2023-03-21T11:42:49;10.68;;;9.63;;
7166;SDS011;3625;51.762;14.320;2023-03-21T11:45:20;11.90;;;10.25;;
7166;SDS011;3625;51.762;14.320;2023-03-21T11:47:52;13.05;;;11.80;;
7166;SDS011;3625;51.762;14.320;2023-03-21T11:50:26;12.27;;;11.07;;
7166;SDS011;3625;51.762;14.320;2023-03-21T11:53:09;10.40;;;9.35;;
7166;SDS011;3625;51.762;14.320;2023-03-21T11:55:56;11.65;;;10.55;;
7166;SDS011;3625;51.762;14.320;2023-03-21T11:58:39;11.40;;;10.30;;
7166;SDS011;3625;51.762;14.320;2023-03-21T12:01:23;11.95;;;10.75;;
7166;SDS011;3625;51.762;14.320;2023-03-21T12:04:04;11.48;;;10.40;;
7166;SDS011;3625;51.762;14.320;2023-03-21T12:06:44;10.85;;;9.45;;
7166;SDS011;3625;51.762;14.320;2023-03-21T12:09:24;12.23;;;11.10;;
7166;SDS011;3625;51.762;14.320;2023-03-21T12:12:03;12.48;;;11.20;;
7166;SDS011;3625;51.762;14.320;2023-03-21T12:14:52;10.82;;;9.73;;
7166;SDS011;3625;51.762;14.320;2023-03-21T12:17:33;9.52;;;8.68;;
7166;SDS011;3625;51.762;14.320;2023-03-21T12:20:24;15.07;;;11.68;;
7166;SDS011;3625;51.762;14.320;2023-03-21T12:23:11;11.65;;;10.48;;
7166;SDS011;3625;51.762;14.320;2023-03-21T12:25:57;12.65;;;11.45;;
7166;SDS011;3625;51.762;14.320;2023-03-21T12:28:35;12.38;;;11.18;;
7166;SDS011;3625;51.762;14.320;2023-03-21T12:31:16;13.10;;;11.80;;
7166;SDS011;3625;51.762;14.320;2023-03-21T12:33:57;10.77;;;9.77;;
7166;SDS011;3625;51.762;14.320;2023-03-21T12:39:39;13.25;;;11.35;;
7166;SDS011;3625;51.762;14.320;2023-03-21T12:42:23;13.18;;;11.88;;
7166;SDS011;3625;51.762;14.320;2023-03-21T12:45:09;13.10;;;11.65;;
7166;SDS011;3625;51.762;14.320;2023-03-21T12:47:44;12.98;;;11.70;;
7166;SDS011;3625;51.762;14.320;2023-03-21T12:50:19;12.13;;;10.95;;
7166;SDS011;3625;51.762;14.320;2023-03-21T12:52:55;12.20;;;11.10;;
7166;SDS011;3625;51.762;14.320;2023-03-21T12:55:27;12.35;;;11.20;;
7166;SDS011;3625;51.762;14.320;2023-03-21T12:58:00;12.70;;;11.50;;
7166;SDS011;3625;51.762;14.320;2023-03-21T13:00:33;13.80;;;12.50;;
7166;SDS011;3625;51.762;14.320;2023-03-21T13:03:07;13.68;;;12.15;;
7166;SDS011;3625;51.762;14.320;2023-03-21T13:05:45;12.68;;;11.45;;
7166;SDS011;3625;51.762;14.320;2023-03-21T13:08:22;13.38;;;11.70;;
7166;SDS011;3625;51.762;14.320;2023-03-21T13:10:55;13.32;;;11.80;;
7166;SDS011;3625;51.762;14.320;2023-03-21T13:13:28;12.95;;;11.65;;
7166;SDS011;3625;51.762;14.320;2023-03-21T13:16:05;14.20;;;12.90;;
7166;SDS011;3625;51.762;14.320;2023-03-21T13:18:44;13.07;;;11.48;;
7166;SDS011;3625;51.762;14.320;2023-03-21T13:21:23;13.50;;;12.20;;
7166;SDS011;3625;51.762;14.320;2023-03-21T13:26:57;12.63;;;11.48;;
7166;SDS011;3625;51.762;14.320;2023-03-21T13:29:30;13.38;;;11.95;;
7166;SDS011;3625;51.762;14.320;2023-03-21T13:32:06;13.38;;;11.98;;
7166;SDS011;3625;51.762;14.320;2023-03-21T13:34:42;13.50;;;12.15;;
7166;SDS011;3625;51.762;14.320;2023-03-21T13:37:12;14.18;;;12.68;;
7166;SDS011;3625;51.762;14.320;2023-03-21T13:39:46;14.48;;;12.93;;
7166;SDS011;3625;51.762;14.320;2023-03-21T13:42:20;10.98;;;9.93;;
7166;SDS011;3625;51.762;14.320;2023-03-21T13:44:52;12.68;;;11.35;;
7166;SDS011;3625;51.762;14.320;2023-03-21T13:47:38;12.85;;;11.55;;
7166;SDS011;3625;51.762;14.320;2023-03-21T13:50:22;12.23;;;10.68;;
7166;SDS011;3625;51.762;14.320;2023-03-21T13:55:59;13.60;;;11.07;;
7166;SDS011;3625;51.762;14.320;2023-03-21T13:58:52;11.20;;;10.05;;
7166;SDS011;3625;51.762;14.320;2023-03-21T14:01:32;15.40;;;12.02;;
7166;SDS011;3625;51.762;14.320;2023-03-21T14:04:09;14.23;;;12.70;;
7166;SDS011;3625;51.762;14.320;2023-03-21T14:06:43;11.10;;;10.00;;
7166;SDS011;3625;51.762;14.320;2023-03-21T14:09:17;11.68;;;10.48;;
7166;SDS011;3625;51.762;14.320;2023-03-21T14:11:53;13.02;;;11.73;;
7166;SDS011;3625;51.762;14.320;2023-03-21T14:14:34;11.57;;;10.35;;
7166;SDS011;3625;51.762;14.320;2023-03-21T14:17:13;10.15;;;8.77;;
7166;SDS011;3625;51.762;14.320;2023-03-21T14:19:50;12.15;;;11.05;;
7166;SDS011;3625;51.762;14.320;2023-03-21T14:22:20;11.38;;;10.27;;
7166;SDS011;3625;51.762;14.320;2023-03-21T14:24:54;12.00;;;10.73;;
7166;SDS011;3625;51.762;14.320;2023-03-21T14:27:27;11.07;;;9.57;;
7166;SDS011;3625;51.762;14.320;2023-03-21T14:29:58;10.05;;;9.02;;
7166;SDS011;3625;51.762;14.320;2023-03-21T14:32:28;9.18;;;8.38;;
7166;SDS011;3625;51.762;14.320;2023-03-21T14:34:59;9.25;;;8.35;;
7166;SDS011;3625;51.762;14.320;2023-03-21T14:37:30;10.77;;;9.68;;
7166;SDS011;3625;51.762;14.320;2023-03-21T14:40:01;9.73;;;8.82;;
7166;SDS011;3625;51.762;14.320;2023-03-21T14:42:35;11.52;;;9.50;;
7166;SDS011;3625;51.762;14.320;2023-03-21T14:45:14;11.40;;;9.68;;
7166;SDS011;3625;51.762;14.320;2023-03-21T14:47:53;9.93;;;8.15;;
7166;SDS011;3625;51.762;14.320;2023-03-21T14:50:23;9.95;;;8.63;;
7166;SDS011;3625;51.762;14.320;2023-03-21T14:53:03;12.18;;;9.57;;
7166;SDS011;3625;51.762;14.320;2023-03-21T14:55:34;9.70;;;8.73;;
7166;SDS011;3625;51.762;14.320;2023-03-21T14:58:12;10.35;;;8.45;;
7166;SDS011;3625;51.762;14.320;2023-03-21T15:00:42;10.00;;;8.98;;
7166;SDS011;3625;51.762;14.320;2023-03-21T15:03:14;8.95;;;8.05;;
7166;SDS011;3625;51.762;14.320;2023-03-21T15:05:46;7.95;;;6.60;;
7166;SDS011;3625;51.762;14.320;2023-03-21T15:08:16;9.18;;;7.28;;
7166;SDS011;3625;51.762;14.320;2023-03-21T15:10:53;8.23;;;7.35;;
7166;SDS011;3625;51.762;14.320;2023-03-21T15:13:35;8.93;;;7.80;;
7166;SDS011;3625;51.762;14.320;2023-03-21T15:16:08;9.88;;;7.55;;
7166;SDS011;3625;51.762;14.320;2023-03-21T15:18:40;9.95;;;7.90;;
7166;SDS011;3625;51.762;14.320;2023-03-21T15:21:11;8.65;;;7.75;;
7166;SDS011;3625;51.762;14.320;2023-03-21T15:23:48;8.48;;;7.50;;
7166;SDS011;3625;51.762;14.320;2023-03-21T15:26:23;9.73;;;7.22;;
7166;SDS011;3625;51.762;14.320;2023-03-21T15:28:57;7.80;;;7.00;;
7166;SDS011;3625;51.762;14.320;2023-03-21T15:31:28;8.57;;;6.68;;
7166;SDS011;3625;51.762;14.320;2023-03-21T15:34:02;7.60;;;6.80;;
7166;SDS011;3625;51.762;14.320;2023-03-21T15:36:32;7.90;;;6.05;;
7166;SDS011;3625;51.762;14.320;2023-03-21T15:39:04;7.65;;;6.90;;
7166;SDS011;3625;51.762;14.320;2023-03-21T15:41:35;7.50;;;6.65;;
7166;SDS011;3625;51.762;14.320;2023-03-21T15:44:10;8.82;;;6.32;;
7166;SDS011;3625;51.762;14.320;2023-03-21T15:46:44;11.50;;;7.78;;